Flight Track Log - Related Links

Times and Time Zones

All times are in EDT time to prevent confusion due to time zone crossing. See the EGF4211 flight status page for this flight to view local times or setup timezone preferences in your user account.

Time Position Orientation Groundspeed Altitude Reporting Facility
EDT Latitude Longitude Course Direction KTS MPH feet Rate Location/Type
Thu 05:04:33 PM 42.0333 -87.9500 352° North 187 215 3,000  Level Chicago TRACON
Thu 05:06:00 PM 42.2293 -87.9865 350° North  Level FlightAware Approximate
Thu 05:06:36 PM 42.1508 -88.0100 339° North 240 276 5,000  Level Chicago Center
Thu 05:07:00 PM 42.3185 -88.0088 350° North  Level FlightAware Approximate
Thu 05:07:38 PM 42.2208 -88.0039 North 250 288 7,600  Level Chicago Center
Thu 05:08:00 PM 42.4050 -88.0442 340° North  Level FlightAware Approximate
Thu 05:08:42 PM 42.2936 -88.0019 North 261 300 10,200  Level Chicago Center
Thu 05:09:00 PM 42.4940 -88.0655 352° North  Level FlightAware Approximate
Thu 05:09:43 PM 42.3806 -87.9925 North 273 314 12,900  Level Chicago Center
Thu 05:10:45 PM 42.4561 -88.0100 350° North 274 315 14,700 1,548 Climbing Chicago Center
Thu 05:11:47 PM 42.5350 -88.0453 342° North 293 337 16,100 1,355 Climbing Chicago Center
Thu 05:12:49 PM 42.6194 -88.0797 343° North 312 359 17,500 1,452 Climbing Chicago Center
Thu 05:13:51 PM 42.7044 -88.1133 344° North 318 366 19,100 1,597 Climbing Chicago Center
Thu 05:14:53 PM 42.8033 -88.1539 343° North 318 366 20,800 1,548 Climbing Chicago Center
Thu 05:15:55 PM 42.8725 -88.2269 322° Northwest 319 367 22,300 1,452 Climbing Chicago Center
Thu 05:16:57 PM 42.9214 -88.3292 303° West 321 369 23,800 1,403 Climbing Chicago Center
Thu 05:17:59 PM 42.9686 -88.4325 302° West 320 368 25,200 1,392 Climbing Chicago Center
Thu 05:19:02 PM 43.0178 -88.5353 303° West 322 371 26,700 1,440 Climbing Chicago Center
Thu 05:20:04 PM 43.0653 -88.6350 303° West 314 361 28,200 1,548 Climbing Chicago Center
Thu 05:21:06 PM 43.1214 -88.7522 303° West 313 360 29,900 1,500 Climbing Chicago Center
Thu 05:22:08 PM 43.1686 -88.8506 303° West 308 354 31,300 1,016 Climbing Chicago Center
Thu 05:23:10 PM 43.2167 -88.9531 303° West 315 362 32,000 339 Climbing Chicago Center
Thu 05:24:12 PM 43.2692 -89.0647 303° West 339 390 32,000  Level Chicago Center
Thu 05:25:14 PM 43.3233 -89.1806 303° West 356 410 32,000  Level Chicago Center
Thu 05:26:16 PM 43.3767 -89.2953 303° West 354 407 32,000  Level Chicago Center
Thu 05:27:18 PM 43.4403 -89.4314 303° West 360 414 32,000  Level Chicago Center
Thu 05:28:20 PM 43.4936 -89.5472 302° West 356 410 32,000  Level Chicago Center
Thu 05:29:22 PM 43.5442 -89.6631 301° West 355 409 32,000  Level Chicago Center
Thu 05:30:24 PM 43.5978 -89.7772 303° West 352 405 32,000  Level Chicago Center
Thu 05:31:26 PM 43.6494 -89.8919 302° West 352 405 32,000  Level Chicago Center
Thu 05:31:55 PM 43.6761 -89.9483 303° West 352 405 32,000  Level Minneapolis Center
Thu 05:32:57 PM 43.7281 -90.0639 302° West 353 406 32,000  Level Minneapolis Center
Thu 05:33:59 PM 43.7897 -90.1969 303° West 352 405 32,000  Level Minneapolis Center
Thu 05:35:01 PM 43.8414 -90.3119 302° West 350 403 32,000  Level Minneapolis Center
Thu 05:36:04 PM 43.8939 -90.4272 302° West 354 407 32,000  Level Minneapolis Center
Thu 05:37:06 PM 43.9456 -90.5453 301° West 356 410 32,000  Level Minneapolis Center
Thu 05:38:08 PM 44.0017 -90.6700 302° West 357 411 32,000  Level Minneapolis Center
Thu 05:39:10 PM 44.0533 -90.7872 302° West 359 413 32,000  Level Minneapolis Center
Thu 05:40:12 PM 44.1056 -90.9044 302° West 360 414 32,000  Level Minneapolis Center
Thu 05:41:14 PM 44.1572 -91.0233 301° West 361 415 32,000  Level Minneapolis Center
Thu 05:42:16 PM 44.2200 -91.1636 302° West 360 414 32,000  Level Minneapolis Center
Thu 05:43:18 PM 44.2711 -91.2822 301° West 360 414 32,000  Level Minneapolis Center
Thu 05:44:20 PM 44.3208 -91.3983 301° West 358 412 32,000  Level Minneapolis Center
Thu 05:45:22 PM 44.3717 -91.5167 301° West 357 411 32,000  Level Minneapolis Center
Thu 05:46:24 PM 44.4314 -91.6575 301° West 355 409 32,000  Level Minneapolis Center
Thu 05:47:26 PM 44.4811 -91.7750 301° West 354 407 32,000  Level Minneapolis Center
Thu 05:48:28 PM 44.5322 -91.8917 302° West 353 406 32,000  Level Minneapolis Center
Thu 05:49:30 PM 44.5822 -92.0111 300° West 355 409 32,000  Level Minneapolis Center
Thu 05:50:33 PM 44.6319 -92.1292 301° West 355 409 32,000  Level Minneapolis Center
Thu 05:51:35 PM 44.6825 -92.2483 301° West 356 410 32,000  Level Minneapolis Center
Thu 05:52:37 PM 44.7439 -92.3925 301° West 359 413 32,000  Level Minneapolis Center
Thu 05:53:39 PM 44.7933 -92.5125 300° West 358 412 32,000  Level Minneapolis Center
Thu 05:54:41 PM 44.8431 -92.6311 301° West 356 410 32,000  Level Minneapolis Center
Thu 05:55:43 PM 44.8928 -92.7508 300° West 357 411 32,000  Level Minneapolis Center
Thu 05:56:45 PM 44.9419 -92.8697 300° West 357 411 32,000  Level Minneapolis Center
Thu 05:57:47 PM 45.0014 -93.0144 300° West 359 413 32,000  Level Minneapolis Center
Thu 05:59:02 PM 45.0603 -93.1603 300° West 361 415 32,000  Level Minneapolis Center
Thu 06:00:04 PM 45.1103 -93.2825 300° West 362 417 32,000  Level Minneapolis Center
Thu 06:01:06 PM 45.1611 -93.4050 301° West 363 418 32,000  Level Minneapolis Center
Thu 06:02:08 PM 45.2367 -93.5383 309° West 363 418 32,000  Level Minneapolis Center
Thu 06:03:10 PM 45.2992 -93.6508 308° West 365 420 32,000  Level Minneapolis Center
Thu 06:04:12 PM 45.3600 -93.7653 307° West 364 419 32,000  Level Minneapolis Center
Thu 06:05:14 PM 45.4211 -93.8789 307° West 364 419 32,000  Level Minneapolis Center
Thu 06:06:16 PM 45.4833 -93.9933 308° West 367 422 32,000  Level Minneapolis Center
Thu 06:07:18 PM 45.5572 -94.1328 307° West 367 422 32,000  Level Minneapolis Center
Thu 06:08:20 PM 45.6189 -94.2478 308° West 367 422 32,000  Level Minneapolis Center
Thu 06:09:22 PM 45.6803 -94.3636 307° West 367 422 32,000  Level Minneapolis Center
Thu 06:10:24 PM 45.7414 -94.4789 307° West 366 421 32,000  Level Minneapolis Center
Thu 06:11:26 PM 45.8025 -94.5958 307° West 367 422 32,000  Level Minneapolis Center
Thu 06:12:28 PM 45.8631 -94.7131 307° West 367 422 32,000  Level Minneapolis Center
Thu 06:13:31 PM 45.9358 -94.8522 307° West 366 421 32,000  Level Minneapolis Center
Thu 06:14:33 PM 45.9967 -94.9694 307° West 367 422 32,000  Level Minneapolis Center
Thu 06:15:35 PM 46.0578 -95.0897 306° West 368 423 32,000  Level Minneapolis Center
Thu 06:16:37 PM 46.1192 -95.2078 307° West 369 425 32,000 -48 Level Minneapolis Center
Thu 06:17:39 PM 46.1794 -95.3275 306° West 369 425 31,900 -1,403 Descending Minneapolis Center
Thu 06:18:41 PM 46.2531 -95.4697 307° West 369 425 29,100 -2,806 Descending Minneapolis Center
Thu 06:19:43 PM 46.3133 -95.5889 306° West 368 423 26,100 -3,000 Descending Minneapolis Center
Thu 06:20:45 PM 46.3764 -95.7136 306° West 382 440 22,900 -3,290 Descending Minneapolis Center
Thu 06:21:47 PM 46.4431 -95.8472 306° West 376 433 19,300 -3,194 Descending Minneapolis Center
Thu 06:22:49 PM 46.5042 -95.9692 306° West 365 420 16,300 -2,952 Descending Minneapolis Center
Thu 06:23:51 PM 46.5642 -96.0889 306° West 350 403 13,200 -2,613 Descending Minneapolis Center
Thu 06:24:53 PM 46.6192 -96.1972 306° West 321 369 10,900 -1,597 Descending Minneapolis Center
Thu 06:25:55 PM 46.6753 -96.2656 320° Northwest 274 315 9,900 -1,008 Descending Minneapolis Center
Thu 06:26:58 PM 46.7317 -96.3375 319° Northwest 262 302 8,800 -864 Descending Minneapolis Center
Thu 06:28:00 PM 46.7858 -96.4131 316° Northwest 257 296 8,100 -677 Descending Minneapolis Center
Thu 06:29:02 PM 46.8314 -96.4989 308° West 257 296 7,400 -1,065 Descending Minneapolis Center
Thu 06:30:04 PM 46.8708 -96.5733 308° West 241 277 5,900 -1,500 Descending Minneapolis Center
Thu 06:31:06 PM 46.9161 -96.6561 309° West 235 270 4,300 -919 Descending Minneapolis Center
Thu 06:32:08 PM 46.9542 -96.7236 310° West 203 234 4,000 -397 Descending Minneapolis Center
Thu 06:33:22 PM 46.9939 -96.7961 309° West 196 226 3,400 -441 Descending Minneapolis Center
Thu 06:34:24 PM 47.0450 -96.8336 333° Northwest 206 237 3,000 -387 Descending Minneapolis Center

Login

Don't have an account? Register now (free) for customized features, flight alerts, and more!